Flight Track Log - Related Links

Times and Time Zones

All times are in EDT time to prevent confusion due to time zone crossing. See the UCA3597 flight status page for this flight to view local times or setup timezone preferences in your user account.

Time Position Orientation Groundspeed Altitude Reporting Facility
EDT Latitude Longitude Course Direction KTS MPH feet Rate Location/Type
Wed 07:24:26 PM 42.2239 -76.0606 212° Southwest 161 185 4,100  Level New York Center
Wed 07:25:26 PM 42.1808 -76.0961 211° Southwest 147 169 5,600 1,627 Climbing New York Center
Wed 07:26:24 PM 42.1353 -76.1372 214° Southwest 172 198 7,300 5,200 Climbing New York Center
Wed 07:27:26 PM 42.0878 -76.1725 209° Southwest 195 224 16,000 1,537 Climbing New York Center
Wed 07:28:00 PM 41.8397 -76.1549 212° Southwest  Level Estimated
Wed 07:28:25 PM 42.0381 -76.2158 213° Southwest 200 230 10,400  Level New York Center
Wed 07:29:26 PM 41.9883 -76.2564 211° Southwest 206 237 11,600 1,289 Climbing New York Center
Wed 07:30:26 PM 41.9383 -76.2969 211° Southwest 214 246 13,000 1,361 Climbing New York Center
Wed 07:31:25 PM 41.8953 -76.3325 212° Southwest 214 246 14,300 1,261 Climbing New York Center
Wed 07:32:25 PM 41.8453 -76.3728 211° Southwest 214 246 15,500 843 Climbing New York Center
Wed 07:33:26 PM 41.7936 -76.4131 210° Southwest 214 246 16,000 248 Climbing New York Center
Wed 07:34:26 PM 41.7264 -76.4683 212° Southwest 242 278 16,000  Level New York Center
Wed 07:35:24 PM 41.6678 -76.5133 210° Southwest 263 303 16,000  Level New York Center
Wed 07:36:24 PM 41.5958 -76.5406 196° South 269 310 16,000  Level New York Center
Wed 07:37:26 PM 41.5175 -76.5669 194° South 269 310 16,000  Level New York Center
Wed 07:38:25 PM 41.4472 -76.5942 196° South 269 310 16,000  Level New York Center
Wed 07:39:23 PM 41.3797 -76.6161 194° South 269 310 16,000  Level New York Center
Wed 07:40:24 PM 41.3181 -76.6411 197° South 263 303 16,000  Level New York Center
Wed 07:41:25 PM 41.2394 -76.6672 194° South 263 303 16,000  Level New York Center
Wed 07:42:26 PM 41.1800 -76.6925 198° South 263 303 16,000  Level New York Center
Wed 07:43:24 PM 41.1100 -76.7194 196° South 263 303 16,000  Level New York Center
Wed 07:44:24 PM 41.0400 -76.7436 195° South 268 308 16,000  Level New York Center
Wed 07:45:25 PM 40.9719 -76.7678 195° South 268 308 16,000  Level New York Center
Wed 07:46:25 PM 40.9039 -76.7947 197° South 263 303 16,000  Level New York Center
Wed 07:47:23 PM 40.8339 -76.8189 195° South 263 303 16,000  Level New York Center
Wed 07:48:25 PM 40.7597 -76.8450 195° South 258 297 16,000  Level New York Center
Wed 07:49:26 PM 40.6917 -76.8719 197° South 258 297 16,000  Level New York Center
Wed 07:50:26 PM 40.6239 -76.8933 193° South 253 291 16,000  Level New York Center
Wed 07:51:23 PM 40.5558 -76.9200 197° South 253 291 16,000  Level New York Center
Wed 07:52:25 PM 40.4897 -76.9442 196° South 248 285 16,000  Level New York Center
Wed 07:53:23 PM 40.4200 -76.9653 193° South 248 285 16,000 -303 Level New York Center
Wed 07:54:24 PM 40.3497 -76.9917 196° South 253 291 15,400 -793 Descending New York Center
Wed 07:55:24 PM 40.2794 -77.0181 196° South 263 303 14,400 -885 Descending New York Center
Wed 07:56:26 PM 40.2075 -77.0414 194° South 269 310 13,600 -884 Descending New York Center
Wed 07:58:34 PM 40.0500 -77.1000 196° South 268 308 11,600 -926 Descending Potomac TRACON
Wed 07:59:34 PM 39.9833 -77.1167 191° South 264 304 10,700 -842 Descending Potomac TRACON
Wed 08:00:28 PM 39.9167 -77.1500 201° Southwest 270 311 10,000 -842 Descending Potomac TRACON
Wed 08:01:28 PM 39.8500 -77.1667 191° South 265 305 9,100 -522 Descending Potomac TRACON
Wed 08:02:23 PM 39.7833 -77.1833 191° South 258 297 9,000 -50 Descending Potomac TRACON
Wed 08:03:29 PM 39.7167 -77.2167 201° Southwest 252 290 9,000 -450 Level Potomac TRACON
Wed 08:04:23 PM 39.6667 -77.2667 218° Southwest 243 280 8,100 -939 Descending Potomac TRACON
Wed 08:05:24 PM 39.6167 -77.3500 232° Southwest 255 293 7,200 -545 Descending Potomac TRACON
Wed 08:06:24 PM 39.5667 -77.3833 207° Southwest 245 282 7,000 -100 Descending Potomac TRACON
Wed 08:07:24 PM 39.5000 -77.3833 180° South 248 285 7,000  Level Potomac TRACON
Wed 08:08:24 PM 39.4333 -77.3667 169° South 245 282 7,000 -211 Level Potomac TRACON
Wed 08:09:18 PM 39.3667 -77.3667 180° South 245 282 6,600 -789 Descending Potomac TRACON
Wed 08:10:18 PM 39.3000 -77.3667 180° South 251 289 5,500 -1,050 Descending Potomac TRACON
Wed 08:11:18 PM 39.2333 -77.3667 180° South 257 296 4,500 -750 Descending Potomac TRACON
Wed 08:12:18 PM 39.1667 -77.3667 180° South 256 295 4,000 -248 Descending Potomac TRACON
Wed 08:13:19 PM 39.0833 -77.3500 171° South 256 295 4,000  Level Potomac TRACON
Wed 08:14:19 PM 39.0167 -77.3500 180° South 255 293 4,000  Level Potomac TRACON
Wed 08:15:19 PM 38.9333 -77.3500 180° South 256 295 4,000  Level Potomac TRACON
Wed 08:16:19 PM 38.8667 -77.3500 180° South 250 288 4,000 -150 Level Potomac TRACON
Wed 08:17:19 PM 38.8167 -77.3667 195° South 203 234 3,700 -810 Descending Potomac TRACON
Wed 08:18:25 PM 38.8167 -77.4333 270° West 195 224 2,300 -1,050 Descending Potomac TRACON
Wed 08:19:19 PM 38.8500 -77.4333 360° North 145 167 1,600 -684 Descending Potomac TRACON
Wed 08:20:19 PM 38.8833 -77.4333 360° North 115 132 1,000 -600 Descending Potomac TRACON
Wed 08:22:00 PM 38.9333 -77.4500 349° North  Level FlightAware Approximate

Login

Don't have an account? Register now (free) for customized features, flight alerts, and more!